Terminal Aerodrome Forecast
Issued by NWS

Home | Current Version | Previous Version | Text Only | Print | Product List | Glossary Off
Versions: 1 2 3 4 5 6 7 8 9 10 11 12 13 14 15

811
FTUS42 KMHX 251137
TAFPGV
TAF
KPGV 251137Z 2512/2612 00000KT 1/2SM FG OVC002
     FM251300 VRB04KT 5SM BR SCT250
      TEMPO 2513/2514 1 1/2SM BR BKN009
     FM251400 22015G24KT P6SM SCT250
     FM252300 27012G24KT P6SM SCT200
     FM260700 32008KT P6SM SKC
      AMD LTD TO CLD VIS AND WIND=

USA.gov is the U.S. government's official web portal to all federal, state and local government web resources and services.